createdAt,value
2023-10-21T00:00:20.777Z,26.33
2023-10-21T00:02:48.977Z,23.25
2023-10-21T00:05:17.493Z,27.65
2023-10-21T00:07:45.756Z,23.75
2023-10-21T00:10:13.970Z,21.58
2023-10-21T00:12:42.149Z,34.50
2023-10-21T00:15:10.985Z,18.63
2023-10-21T00:17:41.318Z,23.13
2023-10-21T00:20:10.232Z,25.25
2023-10-21T00:22:38.693Z,22.10
2023-10-21T00:25:07.488Z,22.70
2023-10-21T00:27:35.627Z,23.40
2023-10-21T00:30:03.850Z,24.98
2023-10-21T00:32:32.093Z,24.60
2023-10-21T00:35:01.665Z,25.10
2023-10-21T00:37:29.862Z,33.35
2023-10-21T00:39:58.007Z,27.85
2023-10-21T00:42:26.078Z,25.92
2023-10-21T00:44:54.291Z,29.20
2023-10-21T00:47:22.438Z,23.92
2023-10-21T00:49:50.644Z,31.17
2023-10-21T00:52:21.145Z,23.23
2023-10-21T00:54:49.505Z,20.75
2023-10-21T00:57:18.034Z,19.33
2023-10-21T00:59:46.471Z,18.58
2023-10-21T01:02:15.214Z,28.30
2023-10-21T01:04:44.073Z,17.70
2023-10-21T01:07:17.903Z,17.40
2023-10-21T01:09:47.382Z,18.33
2023-10-21T01:12:15.861Z,31.92
2023-10-21T01:14:44.172Z,16.08
2023-10-21T01:17:12.420Z,25.98
2023-10-21T01:19:40.568Z,16.25
2023-10-21T01:22:08.745Z,22.05
2023-10-21T01:24:38.305Z,19.75
2023-10-21T01:27:06.934Z,21.08
2023-10-21T01:29:35.333Z,29.95
2023-10-21T01:32:03.674Z,24.30
2023-10-21T01:34:31.875Z,33.80
2023-10-21T01:37:00.658Z,28.83
2023-10-21T01:39:28.788Z,24.10
2023-10-21T01:41:58.450Z,37.42
2023-10-21T01:44:26.550Z,15.80
2023-10-21T01:46:54.801Z,22.42
2023-10-21T01:49:22.872Z,25.25
2023-10-21T01:51:51.050Z,22.45
2023-10-21T01:54:19.209Z,28.13
2023-10-21T01:56:47.562Z,28.63
2023-10-21T01:59:17.228Z,24.88
2023-10-21T02:01:45.506Z,32.00
2023-10-21T02:04:13.764Z,21.23
2023-10-21T02:06:41.954Z,19.70
2023-10-21T02:09:10.301Z,24.05
2023-10-21T02:11:38.447Z,16.58
2023-10-21T02:14:06.656Z,24.45
2023-10-21T02:16:36.183Z,25.05
2023-10-21T02:19:04.426Z,21.52
2023-10-21T02:21:32.587Z,28.45
2023-10-21T02:24:00.785Z,35.40
2023-10-21T02:26:28.944Z,19.05
2023-10-21T02:28:57.052Z,18.73
2023-10-21T02:31:25.437Z,21.02
2023-10-21T02:33:55.207Z,18.08
2023-10-21T02:36:23.441Z,33.35
2023-10-21T02:38:52.787Z,19.10
2023-10-21T02:41:21.261Z,24.02
2023-10-21T02:43:49.879Z,21.38
2023-10-21T02:46:18.092Z,22.15
2023-10-21T02:48:46.865Z,18.42
2023-10-21T02:51:18.878Z,21.58
2023-10-21T02:53:47.353Z,12.68
2023-10-21T02:56:16.060Z,27.38
2023-10-21T02:58:44.356Z,25.00
2023-10-21T03:01:16.967Z,18.25
2023-10-21T03:03:46.356Z,31.02
2023-10-21T03:06:17.050Z,26.05
2023-10-21T03:08:45.512Z,16.20
2023-10-21T03:11:13.856Z,22.10
2023-10-21T03:13:42.005Z,25.73
2023-10-21T03:16:12.125Z,32.75
2023-10-21T03:18:42.160Z,25.33
2023-10-21T03:21:10.971Z,18.85
2023-10-21T03:23:40.618Z,12.98
2023-10-21T03:26:09.387Z,19.90
2023-10-21T03:28:37.637Z,27.20
2023-10-21T03:31:06.482Z,16.55
2023-10-21T03:33:35.495Z,18.95
2023-10-21T03:36:05.748Z,32.38
2023-10-21T03:38:34.269Z,29.77
2023-10-21T03:41:06.400Z,20.20
2023-10-21T03:43:35.520Z,24.88
2023-10-21T03:46:05.159Z,20.73
2023-10-21T03:48:33.909Z,24.45
2023-10-21T03:51:06.602Z,23.85
2023-10-21T03:53:35.537Z,21.63
2023-10-21T03:56:05.422Z,21.08
2023-10-21T03:58:33.852Z,21.17
2023-10-21T04:01:02.370Z,25.92
2023-10-21T04:03:30.799Z,27.00
2023-10-21T04:05:59.702Z,21.80
2023-10-21T04:08:29.315Z,25.77
2023-10-21T04:10:57.494Z,38.03
2023-10-21T04:13:27.243Z,21.80
2023-10-21T04:15:55.479Z,28.88
2023-10-21T04:18:24.050Z,15.45
2023-10-21T04:20:52.659Z,25.02
2023-10-21T04:23:20.880Z,22.65
2023-10-21T04:25:49.157Z,26.63
2023-10-21T04:28:17.651Z,25.38
2023-10-21T04:30:48.325Z,24.42
2023-10-21T04:33:17.850Z,29.85
2023-10-21T04:35:46.142Z,24.98
2023-10-21T04:38:14.357Z,22.58
2023-10-21T04:40:42.506Z,29.73
2023-10-21T04:43:10.715Z,27.40
2023-10-21T04:45:38.945Z,22.98
2023-10-21T04:48:09.523Z,29.17
2023-10-21T04:50:37.742Z,28.90
2023-10-21T04:53:06.016Z,20.17
2023-10-21T04:55:34.201Z,27.67
2023-10-21T04:58:02.673Z,23.77
2023-10-21T05:00:31.358Z,18.80
2023-10-21T05:02:59.705Z,26.00
2023-10-21T05:05:29.294Z,18.23
2023-10-21T05:07:57.394Z,28.15
2023-10-21T05:10:25.542Z,24.13
2023-10-21T05:12:53.652Z,19.23
2023-10-21T05:15:21.852Z,23.05
2023-10-21T05:17:50.392Z,20.45
2023-10-21T05:20:18.797Z,18.35
2023-10-21T05:22:48.293Z,15.48
2023-10-21T05:25:16.462Z,14.18
2023-10-21T05:27:44.587Z,18.95
2023-10-21T05:30:14.825Z,14.45
2023-10-21T05:32:43.807Z,17.67
2023-10-21T05:35:11.921Z,18.20
2023-10-21T05:37:40.245Z,13.52
2023-10-21T05:40:11.236Z,9.90
2023-10-21T05:42:39.394Z,13.48
2023-10-21T05:45:09.761Z,12.80
2023-10-21T05:47:38.031Z,12.20
2023-10-21T05:50:07.025Z,15.80
2023-10-21T05:52:35.214Z,8.07
2023-10-21T05:55:06.113Z,11.32
2023-10-21T05:57:36.984Z,15.57
2023-10-21T06:00:06.547Z,15.20
2023-10-21T06:02:34.907Z,24.45
2023-10-21T06:05:04.385Z,12.52
2023-10-21T06:07:32.570Z,21.25
2023-10-21T06:10:00.661Z,13.50
2023-10-21T06:12:29.786Z,19.85
2023-10-21T06:14:59.326Z,14.50
2023-10-21T06:17:27.558Z,14.57
2023-10-21T06:19:55.770Z,21.85
2023-10-21T06:22:24.536Z,14.32
2023-10-21T06:24:52.640Z,14.77
2023-10-21T06:27:20.745Z,12.73
2023-10-21T06:29:48.868Z,15.63
2023-10-21T06:32:18.382Z,6.80
2023-10-21T06:34:46.780Z,8.98
2023-10-21T06:37:14.981Z,15.05
2023-10-21T06:39:43.096Z,18.13
2023-10-21T06:42:12.499Z,11.82
2023-10-21T06:44:40.711Z,13.13
2023-10-21T06:47:08.961Z,15.65
2023-10-21T06:49:38.540Z,16.02
2023-10-21T06:52:07.328Z,18.95
2023-10-21T06:54:38.679Z,15.23
2023-10-21T06:57:07.258Z,15.98
2023-10-21T06:59:39.226Z,18.70
2023-10-21T07:02:09.982Z,19.77
2023-10-21T07:04:39.871Z,14.27
2023-10-21T07:07:08.169Z,10.02
2023-10-21T07:09:36.389Z,13.88
2023-10-21T07:12:05.002Z,11.57
2023-10-21T07:14:34.581Z,13.13
2023-10-21T07:17:02.880Z,11.10
2023-10-21T07:19:32.298Z,12.43
2023-10-21T07:22:01.877Z,16.23
2023-10-21T07:24:31.235Z,20.08
2023-10-21T07:26:59.807Z,12.15
2023-10-21T07:29:27.969Z,13.35
2023-10-21T07:31:56.118Z,10.98
2023-10-21T07:34:24.351Z,9.02
2023-10-21T07:36:52.679Z,11.88
2023-10-21T07:39:22.139Z,12.25
2023-10-21T07:41:50.432Z,15.02
2023-10-21T07:44:20.362Z,17.98
2023-10-21T07:46:51.945Z,16.13
2023-10-21T07:49:20.081Z,14.50
2023-10-21T07:51:49.865Z,12.85
2023-10-21T07:54:18.179Z,13.52
2023-10-21T07:56:50.725Z,10.27
2023-10-21T07:59:19.296Z,9.63
2023-10-21T08:01:47.978Z,10.15
2023-10-21T08:04:16.232Z,12.10
2023-10-21T08:06:45.600Z,12.75
2023-10-21T08:09:15.620Z,11.68
2023-10-21T08:11:44.420Z,10.50
2023-10-21T08:14:14.420Z,16.75
2023-10-21T08:16:43.941Z,7.32
2023-10-21T08:19:12.955Z,12.00
2023-10-21T08:21:42.218Z,11.65
2023-10-21T08:24:12.584Z,8.38
2023-10-21T08:26:41.017Z,9.93
2023-10-21T08:29:11.504Z,10.13
2023-10-21T08:31:41.159Z,8.55
2023-10-21T08:34:14.223Z,8.63
2023-10-21T08:36:43.748Z,10.18
2023-10-21T08:39:12.510Z,5.75
2023-10-21T08:41:41.647Z,6.85
2023-10-21T08:44:11.379Z,9.52
2023-10-21T08:46:45.980Z,10.50
2023-10-21T08:49:18.256Z,8.40
2023-10-21T08:51:48.770Z,7.38
2023-10-21T08:54:18.973Z,12.13
2023-10-21T08:56:47.286Z,8.48
2023-10-21T08:59:17.510Z,9.15
2023-10-21T09:01:50.845Z,11.60
2023-10-21T09:04:22.190Z,5.97
2023-10-21T09:06:59.284Z,11.52
2023-10-21T09:09:29.324Z,10.60
2023-10-21T09:12:11.468Z,5.57
2023-10-21T09:14:53.970Z,7.45
2023-10-21T09:17:23.920Z,7.13
2023-10-21T09:19:53.297Z,10.88
2023-10-21T09:22:26.667Z,10.00
2023-10-21T09:25:10.254Z,9.10
2023-10-21T09:27:39.527Z,8.48
2023-10-21T09:30:08.714Z,6.85
2023-10-21T09:32:38.407Z,8.50
2023-10-21T09:35:26.739Z,5.70
2023-10-21T09:37:54.978Z,8.15
2023-10-21T09:40:25.795Z,5.35
2023-10-21T09:42:54.856Z,9.05
2023-10-21T09:45:26.894Z,6.35
2023-10-21T09:47:58.497Z,7.55
2023-10-21T09:50:27.652Z,8.37
2023-10-21T09:53:03.296Z,13.70
2023-10-21T09:55:33.742Z,9.07
2023-10-21T09:58:03.377Z,12.23
2023-10-21T10:00:32.328Z,6.57
2023-10-21T10:03:02.067Z,8.48
2023-10-21T10:05:32.830Z,6.47
2023-10-21T10:08:01.690Z,5.25
2023-10-21T10:10:30.408Z,9.93
2023-10-21T10:13:02.920Z,7.72
2023-10-21T10:15:32.944Z,9.85
2023-10-21T10:18:04.411Z,10.60
2023-10-21T10:20:33.716Z,13.73
2023-10-21T10:23:03.920Z,9.05
2023-10-21T10:25:36.017Z,7.85
2023-10-21T10:28:09.251Z,12.90
2023-10-21T10:30:44.926Z,11.88
2023-10-21T10:33:18.282Z,7.47
2023-10-21T10:35:50.900Z,14.93
2023-10-21T10:38:22.457Z,11.70
2023-10-21T10:40:52.772Z,14.43
2023-10-21T10:43:22.680Z,9.98
2023-10-21T10:45:50.962Z,13.30
2023-10-21T10:48:20.646Z,14.02
2023-10-21T10:50:49.071Z,12.55
2023-10-21T10:53:18.475Z,13.35
2023-10-21T10:55:49.324Z,6.70
2023-10-21T10:58:20.000Z,16.05
2023-10-21T11:00:48.637Z,9.00
2023-10-21T11:03:29.652Z,15.63
2023-10-21T11:05:59.425Z,12.10
2023-10-21T11:08:28.175Z,10.32
2023-10-21T11:11:05.286Z,14.27
2023-10-21T11:13:34.866Z,7.85
2023-10-21T11:16:06.762Z,11.27
2023-10-21T11:18:37.818Z,15.65
2023-10-21T11:21:06.518Z,19.42
2023-10-21T11:23:34.861Z,14.32
2023-10-21T11:26:09.026Z,10.48
2023-10-21T11:28:39.480Z,13.65
2023-10-21T11:31:09.717Z,15.60
2023-10-21T11:33:39.409Z,9.60
2023-10-21T11:36:09.512Z,13.57
2023-10-21T11:38:38.489Z,13.55
2023-10-21T11:41:14.223Z,17.73
2023-10-21T11:43:46.433Z,11.88
2023-10-21T11:46:14.804Z,11.52
2023-10-21T11:48:44.372Z,11.65
2023-10-21T11:51:12.762Z,11.05
2023-10-21T11:53:40.889Z,12.45
2023-10-21T11:56:34.804Z,14.02
2023-10-21T11:59:19.573Z,12.82
2023-10-21T12:02:01.560Z,17.83
2023-10-21T12:04:51.036Z,11.00
2023-10-21T12:07:35.938Z,9.77
2023-10-21T12:10:21.693Z,12.07
2023-10-21T12:13:06.606Z,9.48
2023-10-21T12:15:51.114Z,8.50
2023-10-21T12:18:36.518Z,9.50
2023-10-21T12:21:29.638Z,11.85
2023-10-21T12:24:24.027Z,9.68
2023-10-21T12:27:02.332Z,10.77
2023-10-21T12:29:47.837Z,9.85
2023-10-21T12:32:41.861Z,8.88
2023-10-21T12:35:39.921Z,10.48
2023-10-21T12:38:24.788Z,8.90
2023-10-21T12:41:16.484Z,12.73
2023-10-21T12:43:49.990Z,6.80
2023-10-21T12:46:23.313Z,6.65
2023-10-21T12:48:57.562Z,12.20
2023-10-21T12:51:30.770Z,13.05
2023-10-21T12:54:13.573Z,7.30
2023-10-21T12:56:42.933Z,10.10
2023-10-21T12:59:11.136Z,5.03
2023-10-21T13:01:40.177Z,11.73
2023-10-21T13:04:09.014Z,10.52
2023-10-21T13:06:37.746Z,6.35
2023-10-21T13:09:23.207Z,6.55
2023-10-21T13:11:52.765Z,6.63
2023-10-21T13:14:22.537Z,5.30
2023-10-21T13:16:51.056Z,4.22
2023-10-21T13:19:19.342Z,6.72
2023-10-21T13:21:47.586Z,4.38
2023-10-21T13:24:17.396Z,7.95
2023-10-21T13:26:46.132Z,6.05
2023-10-21T13:29:14.423Z,4.45
2023-10-21T13:31:42.835Z,14.38
2023-10-21T13:34:11.209Z,6.95
2023-10-21T13:36:39.546Z,5.53
2023-10-21T13:39:17.189Z,9.52
2023-10-21T13:41:47.091Z,6.18
2023-10-21T13:44:15.486Z,7.45
2023-10-21T13:46:43.662Z,10.40
2023-10-21T13:49:17.006Z,5.32
2023-10-21T13:51:46.137Z,8.40
2023-10-21T13:54:16.472Z,10.88
2023-10-21T13:56:46.595Z,4.93
2023-10-21T13:59:15.422Z,5.38
2023-10-21T14:01:44.181Z,9.65
2023-10-21T14:04:13.827Z,6.00
2023-10-21T14:06:43.232Z,7.72
2023-10-21T14:09:24.026Z,7.93
2023-10-21T14:11:54.112Z,6.15
2023-10-21T14:14:22.569Z,8.60
2023-10-21T14:16:50.875Z,5.88
2023-10-21T14:19:19.061Z,5.07
2023-10-21T14:21:47.490Z,4.18
2023-10-21T14:24:15.844Z,6.93
2023-10-21T14:26:46.279Z,6.15
2023-10-21T14:29:15.950Z,10.10
2023-10-21T14:31:46.257Z,6.32
2023-10-21T14:34:17.620Z,9.27
2023-10-21T14:36:46.827Z,10.50
2023-10-21T14:39:15.511Z,6.30
2023-10-21T14:41:46.466Z,4.15
2023-10-21T14:44:16.136Z,7.32
2023-10-21T14:46:44.334Z,5.45
2023-10-21T14:49:12.526Z,7.13
2023-10-21T14:51:41.579Z,4.57
2023-10-21T14:54:09.845Z,5.90
2023-10-21T14:56:38.302Z,8.32
2023-10-21T14:59:06.882Z,9.25
2023-10-21T15:01:37.297Z,4.93
2023-10-21T15:04:08.472Z,7.90
2023-10-21T15:06:37.188Z,11.20
2023-10-21T15:09:06.009Z,7.65
2023-10-21T15:11:34.578Z,8.60
2023-10-21T15:14:02.826Z,6.25
2023-10-21T15:16:33.816Z,7.85
2023-10-21T15:19:06.169Z,11.68
2023-10-21T15:21:34.527Z,4.43
2023-10-21T15:24:03.967Z,6.53
2023-10-21T15:26:33.104Z,6.15
2023-10-21T15:29:01.330Z,7.13
2023-10-21T15:31:29.793Z,11.05
2023-10-21T15:33:58.886Z,10.15
2023-10-21T15:36:28.618Z,8.63
2023-10-21T15:38:57.073Z,11.82
2023-10-21T15:41:26.681Z,7.57
2023-10-21T15:43:56.226Z,7.45
2023-10-21T15:46:24.584Z,12.07
2023-10-21T15:48:53.970Z,8.85
2023-10-21T15:51:22.430Z,6.30
2023-10-21T15:53:52.207Z,12.90
2023-10-21T15:56:21.859Z,10.75
2023-10-21T15:58:51.652Z,7.68
2023-10-21T16:01:19.925Z,7.07
2023-10-21T16:03:49.156Z,7.13
2023-10-21T16:06:18.720Z,8.40
2023-10-21T16:08:57.413Z,8.23
2023-10-21T16:11:27.635Z,10.70
2023-10-21T16:13:56.765Z,11.07
2023-10-21T16:16:29.274Z,9.85
2023-10-21T16:18:57.835Z,10.70
2023-10-21T16:21:26.397Z,8.93
2023-10-21T16:23:56.377Z,12.88
2023-10-21T16:26:27.760Z,12.98
2023-10-21T16:29:00.263Z,12.15
2023-10-21T16:33:58.984Z,8.48
2023-10-21T16:36:28.837Z,7.22
2023-10-21T16:38:58.400Z,9.18
2023-10-21T16:41:28.735Z,11.07
2023-10-21T16:43:57.437Z,5.53
2023-10-21T16:46:26.894Z,8.15
2023-10-21T16:48:56.461Z,10.13
2023-10-21T16:51:25.313Z,6.53
2023-10-21T16:53:54.707Z,9.93
2023-10-21T16:56:24.478Z,9.20
2023-10-21T16:58:54.085Z,13.02
2023-10-21T17:01:23.696Z,10.93
2023-10-21T17:03:53.322Z,12.05
2023-10-21T17:06:23.514Z,9.35
2023-10-21T17:08:53.202Z,8.40
2023-10-21T17:11:22.816Z,13.63
2023-10-21T17:13:52.064Z,11.82
2023-10-21T17:16:22.089Z,8.95
2023-10-21T17:18:52.211Z,7.78
2023-10-21T17:21:23.911Z,7.97
2023-10-21T17:23:54.811Z,9.82
2023-10-21T17:26:24.646Z,5.57
2023-10-21T17:28:53.855Z,8.30
2023-10-21T17:31:26.092Z,8.18
2023-10-21T17:33:55.594Z,10.40
2023-10-21T17:36:25.069Z,7.18
2023-10-21T17:38:54.291Z,13.05
2023-10-21T17:41:23.960Z,10.77
2023-10-21T17:43:53.742Z,10.13
2023-10-21T17:46:27.060Z,8.43
2023-10-21T17:48:56.626Z,16.20
2023-10-21T17:51:26.051Z,13.70
2023-10-21T17:53:55.138Z,7.13
2023-10-21T17:56:24.428Z,9.85
2023-10-21T17:58:54.317Z,11.90
2023-10-21T18:01:25.866Z,10.00
2023-10-21T18:03:55.777Z,7.63
2023-10-21T18:06:25.576Z,10.73
2023-10-21T18:08:55.349Z,12.40
2023-10-21T18:11:26.128Z,9.35
2023-10-21T18:13:55.970Z,14.60
2023-10-21T18:16:27.394Z,10.80
2023-10-21T18:19:00.697Z,12.77
2023-10-21T18:21:30.106Z,14.15
2023-10-21T18:23:59.930Z,10.77
2023-10-21T18:26:28.965Z,10.55
2023-10-21T18:28:59.290Z,7.18
2023-10-21T18:31:32.685Z,10.93
2023-10-21T18:34:02.851Z,5.63
2023-10-21T18:36:32.502Z,10.88
2023-10-21T18:39:02.455Z,8.07
2023-10-21T18:41:30.706Z,7.38
2023-10-21T18:44:00.340Z,12.68
2023-10-21T18:46:30.273Z,10.85
2023-10-21T18:49:01.904Z,10.38
2023-10-21T18:51:34.546Z,12.97
2023-10-21T18:54:05.084Z,10.65
2023-10-21T18:56:34.443Z,10.52
2023-10-21T18:59:03.546Z,13.10
2023-10-21T19:01:37.837Z,11.80
2023-10-21T19:04:08.516Z,10.70
2023-10-21T19:06:39.529Z,18.08
2023-10-21T19:09:09.775Z,11.32
2023-10-21T19:11:39.723Z,15.38
2023-10-21T19:14:09.292Z,14.13
2023-10-21T19:16:42.378Z,18.98
2023-10-21T19:19:12.407Z,11.40
2023-10-21T19:21:43.342Z,16.83
2023-10-21T19:24:12.842Z,15.23
2023-10-21T19:26:42.408Z,15.20
2023-10-21T19:29:11.912Z,10.38
2023-10-21T19:31:44.471Z,15.43
2023-10-21T19:34:14.395Z,17.40
2023-10-21T19:36:43.987Z,11.68
2023-10-21T19:39:14.311Z,14.82
2023-10-21T19:41:43.654Z,13.98
2023-10-21T19:44:26.059Z,10.40
2023-10-21T19:46:58.682Z,16.90
2023-10-21T19:49:28.606Z,22.13
2023-10-21T19:51:58.302Z,15.60
2023-10-21T19:54:32.294Z,13.65
2023-10-21T19:57:02.711Z,17.55
2023-10-21T19:59:32.240Z,15.60
2023-10-21T20:02:02.678Z,20.63
2023-10-21T20:04:32.593Z,16.27
2023-10-21T20:07:02.111Z,14.75
2023-10-21T20:09:30.930Z,15.93
2023-10-21T20:12:00.518Z,17.98
2023-10-21T20:14:35.286Z,18.02
2023-10-21T20:17:08.368Z,22.95
2023-10-21T20:19:37.611Z,18.27
2023-10-21T20:22:07.477Z,17.83
2023-10-21T20:24:36.766Z,17.80
2023-10-21T20:27:06.253Z,23.27
2023-10-21T20:29:34.753Z,20.83
2023-10-21T20:32:03.959Z,24.60
2023-10-21T20:34:35.147Z,28.77
2023-10-21T20:37:06.378Z,24.33
2023-10-21T20:39:36.745Z,21.40
2023-10-21T20:42:06.259Z,19.15
2023-10-21T20:44:35.788Z,20.88
2023-10-21T20:47:09.167Z,19.05
2023-10-21T20:49:40.790Z,17.83
2023-10-21T20:52:14.023Z,18.27
2023-10-21T20:54:43.004Z,15.00
2023-10-21T20:57:11.413Z,21.95
2023-10-21T20:59:39.637Z,20.05
2023-10-21T21:02:08.391Z,17.50
2023-10-21T21:04:38.199Z,23.02
2023-10-21T21:07:06.758Z,26.35
2023-10-21T21:09:35.143Z,22.02
2023-10-21T21:12:03.382Z,20.48
2023-10-21T21:14:31.852Z,22.67
2023-10-21T21:16:59.992Z,23.42
2023-10-21T21:19:28.226Z,18.15
2023-10-21T21:21:58.814Z,33.15
2023-10-21T21:24:28.162Z,24.08
2023-10-21T21:26:56.484Z,27.45
2023-10-21T21:29:25.073Z,27.10
2023-10-21T21:31:53.292Z,26.55
2023-10-21T21:34:21.460Z,27.35
2023-10-21T21:36:49.844Z,26.65
2023-10-21T21:39:23.281Z,26.30
2023-10-21T21:41:51.538Z,30.30
2023-10-21T21:44:19.615Z,20.88
2023-10-21T21:46:47.787Z,25.77
2023-10-21T21:49:16.001Z,26.73
2023-10-21T21:51:44.125Z,18.63
2023-10-21T21:54:12.267Z,25.65
2023-10-21T21:56:41.778Z,28.10
2023-10-21T21:59:10.004Z,26.02
2023-10-21T22:01:38.276Z,23.08
2023-10-21T22:04:09.263Z,24.48
2023-10-21T22:06:38.031Z,27.40
2023-10-21T22:09:06.193Z,27.15
2023-10-21T22:11:34.605Z,39.97
2023-10-21T22:14:07.951Z,33.17
2023-10-21T22:16:37.235Z,30.05
2023-10-21T22:19:05.776Z,25.15
2023-10-21T22:21:33.908Z,23.13
2023-10-21T22:24:02.716Z,27.67
2023-10-21T22:26:31.180Z,27.65
2023-10-21T22:29:02.535Z,21.42
2023-10-21T22:31:33.133Z,27.63
2023-10-21T22:34:01.353Z,27.27
2023-10-21T22:36:29.415Z,28.83
2023-10-21T22:38:58.288Z,23.10
2023-10-21T22:41:26.762Z,25.63
2023-10-21T22:43:54.878Z,26.02
2023-10-21T22:46:23.036Z,29.35
2023-10-21T22:48:52.598Z,20.67
2023-10-21T22:51:20.823Z,21.75
2023-10-21T22:53:48.962Z,24.77
2023-10-21T22:56:17.154Z,24.25
2023-10-21T22:58:45.269Z,30.75
2023-10-21T23:01:14.778Z,22.75
2023-10-21T23:03:43.058Z,27.65
2023-10-21T23:06:14.212Z,24.15
2023-10-21T23:08:42.823Z,16.75
2023-10-21T23:11:11.043Z,22.33
2023-10-21T23:13:39.398Z,21.63
2023-10-21T23:16:08.110Z,19.48
2023-10-21T23:18:38.664Z,20.60
2023-10-21T23:21:07.908Z,20.95
2023-10-21T23:23:37.631Z,24.48
2023-10-21T23:26:07.086Z,25.73
2023-10-21T23:28:35.303Z,20.00
2023-10-21T23:31:04.550Z,24.45
2023-10-21T23:33:33.199Z,22.02
2023-10-21T23:36:07.710Z,19.55
2023-10-21T23:38:40.761Z,19.23
2023-10-21T23:41:09.044Z,15.15
2023-10-21T23:43:37.487Z,20.85
2023-10-21T23:46:07.959Z,14.07
2023-10-21T23:48:36.463Z,23.10
2023-10-21T23:51:05.063Z,24.33
2023-10-21T23:53:33.503Z,20.90
2023-10-21T23:56:03.045Z,17.75
2023-10-21T23:58:31.331Z,16.40
